الصفحة الرئيسية
METAR-TAF:

METAR-TAF

مطار :

حيدر أباد, الهند

دائرة عرض: 17-27N, خط طول: 078-28E, ارتفاع: 530 متر

مراقبة الطقس الحالي

تاريخ ووقت الإصدار 20 دقيقة قبل الساعة 08:00UTC
ريح 3 عقدةمن اتجاهات متغيرة
درجة الحرارة 29°درجة مئوية
الرطوبة 31%
ضغط 1014 hPa
الرؤية: 6000 متر
غيوم قليلة على ارتفاع 2000 قدم

METAR: VOHY 260800Z VRB03KT 6000 FEW020 29/10 Q1014 NOSIG

زمن: 13:50 (08:20 UTC)

توقعات

تاريخ ووقت الإصدار 3ساعات و 20 دقيقة قبل الساعة 05:00UTC
التوقعات صالحة من26 الساعة 06 UTC إلى 26 الساعة 15 UTC
ريح 8 عقدة من الشرق/الشمال الشرقي
الرؤية: 5000 متر
غيوم متفرقة على ارتفاع 2000 قدم
العجاج
أصبح
من 26 الساعة 08 UTC إلى 27 الساعة 10 UTC
ريح 10 عقدة من الشمال الشرقي
الرؤية: 6000 متر
غيوم متفرقة على ارتفاع 1500 قدم

TAF: VOHY 260500Z 2606/2615 07008KT 5000 HZ SCT020 BECMG 2608/2710 05010KT 6000 SCT015

أرصاد الطقس والتوقعات من أكثر من 4000 مطار (تقارير الطقس للمطار METAR والتنبؤ بالطقس بالمطارTAF).

المحطات المتاحة هي النقط الصفراء والحمراء على الخريطة.

حرك المؤشر فوق النقطة لمعرفة اسم المحطة.

ثم انقر لمعرفة أرصاد وتوقعات الطقس.

لتغيير الخارطة: اضغط على الأزرار الخضراء مع رمز الصليب الأسود للتكبير. على الزر الأخضر مع شرطة للتصغير، أو على الأسهم الخضراء للخرائط المجاورة.


METAR-TAF: